createdAt,value
2022-08-07T00:01:43.781Z,99360.97
2022-08-07T00:04:05.069Z,99350.81
2022-08-07T00:06:33.973Z,99368.38
2022-08-07T00:09:17.226Z,99371.19
2022-08-07T00:11:55.556Z,99362.06
2022-08-07T00:14:30.975Z,99349.06
2022-08-07T00:17:02.245Z,99367.72
2022-08-07T00:19:34.023Z,99367.28
2022-08-07T00:22:24.906Z,99362.91
2022-08-07T00:25:15.854Z,99357.66
2022-08-07T00:27:53.290Z,99363.88
2022-08-07T00:30:27.620Z,99362.91
2022-08-07T00:32:58.227Z,99352.59
2022-08-07T00:35:29.881Z,99368.16
2022-08-07T00:37:59.249Z,99363.78
2022-08-07T00:40:40.000Z,99364.63
2022-08-07T00:44:00.668Z,99350.03
2022-08-07T00:46:04.647Z,99357.66
2022-08-07T00:48:35.350Z,99355.19
2022-08-07T00:51:10.304Z,99348.22
2022-08-07T00:53:50.106Z,99356.97
2022-08-07T00:56:18.761Z,99348.59
2022-08-07T00:58:46.774Z,99356.38
2022-08-07T01:01:16.437Z,99357.47
2022-08-07T01:03:56.411Z,99354.78
2022-08-07T01:06:26.161Z,99348.94
2022-08-07T01:08:55.679Z,99351.59
2022-08-07T01:12:09.490Z,99342.19
2022-08-07T01:14:11.490Z,99357.22
2022-08-07T01:16:39.067Z,99363.22
2022-08-07T01:19:19.031Z,99359.88
2022-08-07T01:21:53.411Z,99351.28
2022-08-07T01:24:27.752Z,99353.00
2022-08-07T01:26:59.989Z,99355.56
2022-08-07T01:29:33.774Z,99348.78
2022-08-07T01:32:05.642Z,99340.97
2022-08-07T01:34:47.154Z,99347.84
2022-08-07T01:37:17.485Z,99342.88
2022-08-07T01:39:48.204Z,99362.03
2022-08-07T01:42:40.308Z,99355.84
2022-08-07T01:45:18.232Z,99361.25
2022-08-07T01:48:20.114Z,99354.97
2022-08-07T01:50:47.525Z,99350.53
2022-08-07T01:53:22.627Z,99349.66
2022-08-07T01:56:16.592Z,99340.91
2022-08-07T01:58:52.841Z,99351.97
2022-08-07T02:01:59.726Z,99351.78
2022-08-07T02:04:38.966Z,99357.47
2022-08-07T02:07:24.204Z,99345.84
2022-08-07T02:10:14.392Z,99343.78
2022-08-07T02:12:50.229Z,99348.63
2022-08-07T02:15:25.387Z,99339.44
2022-08-07T02:17:56.525Z,99341.81
2022-08-07T02:20:24.999Z,99335.28
2022-08-07T02:23:04.740Z,99338.38
2022-08-07T02:26:30.478Z,99340.97
2022-08-07T02:28:27.421Z,99325.56
2022-08-07T02:31:10.199Z,99324.25
2022-08-07T02:34:03.931Z,99319.25
2022-08-07T02:36:45.200Z,99329.69
2022-08-07T02:39:43.004Z,99329.72
2022-08-07T02:42:10.029Z,99323.44
2022-08-07T02:44:48.327Z,99330.16
2022-08-07T02:47:23.505Z,99331.78
2022-08-07T02:49:59.611Z,99324.09
2022-08-07T02:53:06.180Z,99325.13
2022-08-07T02:56:03.623Z,99328.81
2022-08-07T02:58:33.406Z,99330.28
2022-08-07T03:01:05.110Z,99327.06
2022-08-07T03:03:50.353Z,99316.69
2022-08-07T03:06:33.260Z,99329.09
2022-08-07T03:09:11.186Z,99332.16
2022-08-07T03:11:52.501Z,99325.25
2022-08-07T03:14:28.290Z,99329.09
2022-08-07T03:16:57.696Z,99325.31
2022-08-07T03:19:36.733Z,99330.97
2022-08-07T03:22:07.065Z,99318.09
2022-08-07T03:24:36.721Z,99319.50
2022-08-07T03:27:08.998Z,99323.47
2022-08-07T03:29:49.483Z,99327.13
2022-08-07T03:32:29.776Z,99320.81
2022-08-07T03:35:17.703Z,99320.81
2022-08-07T03:38:02.180Z,99326.16
2022-08-07T03:40:36.578Z,99328.19
2022-08-07T03:43:14.433Z,99317.50
2022-08-07T03:45:47.676Z,99322.72
2022-08-07T03:48:18.362Z,99327.16
2022-08-07T03:50:56.201Z,99309.81
2022-08-07T03:54:05.984Z,99320.75
2022-08-07T03:56:33.636Z,99309.16
2022-08-07T03:59:12.815Z,99320.97
2022-08-07T04:01:47.117Z,99321.34
2022-08-07T04:04:18.512Z,99314.44
2022-08-07T04:06:51.569Z,99305.72
2022-08-07T04:09:23.003Z,99313.16
2022-08-07T04:12:23.804Z,99322.94
2022-08-07T04:14:47.594Z,99321.69
2022-08-07T04:17:20.937Z,99316.66
2022-08-07T04:20:10.804Z,99332.25
2022-08-07T04:22:53.843Z,99318.47
2022-08-07T04:25:39.483Z,99323.94
2022-08-07T04:28:13.640Z,99332.50
2022-08-07T04:30:55.481Z,99325.19
2022-08-07T04:33:31.792Z,99322.00
2022-08-07T04:36:06.483Z,99321.28
2022-08-07T04:38:34.564Z,99318.09
2022-08-07T04:41:02.836Z,99308.56
2022-08-07T04:44:12.193Z,99313.09
2022-08-07T04:46:59.507Z,99315.03
2022-08-07T04:49:57.452Z,99326.78
2022-08-07T04:52:52.541Z,99328.97
2022-08-07T04:58:24.121Z,99332.75
2022-08-07T05:00:08.071Z,99334.66
2022-08-07T05:02:24.272Z,99342.75
2022-08-07T05:05:02.333Z,99343.44
2022-08-07T05:07:55.412Z,99340.25
2022-08-07T05:10:43.765Z,99334.78
2022-08-07T05:14:51.993Z,99330.00
2022-08-07T05:16:15.779Z,99328.00
2022-08-07T05:18:56.360Z,99332.50
2022-08-07T05:22:00.063Z,99331.41
2022-08-07T05:24:21.244Z,99332.94
2022-08-07T05:26:58.041Z,99326.06
2022-08-07T05:29:39.145Z,99327.25
2022-08-07T05:32:19.307Z,99322.47
2022-08-07T05:34:51.038Z,99321.34
2022-08-07T05:37:25.352Z,99322.66
2022-08-07T05:40:07.112Z,99320.50
2022-08-07T05:42:55.618Z,99326.84
2022-08-07T05:45:47.529Z,99321.84
2022-08-07T05:48:19.678Z,99319.31
2022-08-07T05:50:54.179Z,99317.06
2022-08-07T05:54:13.789Z,99315.81
2022-08-07T05:56:09.829Z,99324.13
2022-08-07T05:58:52.325Z,99333.78
2022-08-07T06:01:26.284Z,99319.84
2022-08-07T06:03:58.845Z,99315.00
2022-08-07T06:06:38.870Z,99335.34
2022-08-07T06:09:17.908Z,99334.97
2022-08-07T06:11:51.063Z,99333.69
2022-08-07T06:14:28.670Z,99342.88
2022-08-07T06:17:01.316Z,99340.78
2022-08-07T06:19:51.922Z,99314.94
2022-08-07T06:22:28.492Z,99325.94
2022-08-07T06:25:10.235Z,99334.03
2022-08-07T06:27:59.798Z,99335.56
2022-08-07T06:30:35.617Z,99338.34
2022-08-07T06:33:22.734Z,99324.13
2022-08-07T06:36:06.485Z,99340.09
2022-08-07T06:38:51.207Z,99336.50
2022-08-07T06:42:01.062Z,99332.34
2022-08-07T06:44:21.854Z,99348.75
2022-08-07T06:46:53.169Z,99346.88
2022-08-07T06:49:28.002Z,99340.75
2022-08-07T06:51:59.543Z,99340.25
2022-08-07T06:55:33.577Z,99332.44
2022-08-07T06:57:39.431Z,99339.28
2022-08-07T07:00:17.722Z,99336.41
2022-08-07T07:02:53.679Z,99327.69
2022-08-07T07:06:04.434Z,99337.56
2022-08-07T07:08:18.938Z,99330.50
2022-08-07T07:10:57.124Z,99340.47
2022-08-07T07:13:58.170Z,99340.00
2022-08-07T07:16:49.460Z,99338.72
2022-08-07T07:19:57.428Z,99339.66
2022-08-07T07:22:36.031Z,99345.84
2022-08-07T07:26:33.288Z,99335.03
2022-08-07T07:29:28.564Z,99340.38
2022-08-07T07:31:44.543Z,99325.56
2022-08-07T07:34:19.911Z,99327.22
2022-08-07T07:36:53.771Z,99331.88
2022-08-07T07:39:25.544Z,99338.03
2022-08-07T07:42:12.875Z,99336.41
2022-08-07T07:44:49.367Z,99331.44
2022-08-07T07:47:23.778Z,99334.03
2022-08-07T07:50:33.455Z,99341.75
2022-08-07T07:52:46.986Z,99332.25
2022-08-07T07:55:17.468Z,99334.13
2022-08-07T07:57:58.292Z,99315.69
2022-08-07T08:00:31.511Z,99315.84
2022-08-07T08:03:16.354Z,99321.84
2022-08-07T08:05:54.297Z,99325.94
2022-08-07T08:08:32.361Z,99332.53
2022-08-07T08:11:08.220Z,99332.00
2022-08-07T08:13:53.109Z,99335.72
2022-08-07T08:16:39.796Z,99341.06
2022-08-07T08:20:15.600Z,99335.13
2022-08-07T08:22:20.136Z,99328.28
2022-08-07T08:25:25.075Z,99333.69
2022-08-07T08:28:04.031Z,99333.50
2022-08-07T08:30:35.094Z,99314.78
2022-08-07T08:33:16.857Z,99334.97
2022-08-07T08:35:56.142Z,99319.72
2022-08-07T08:38:38.618Z,99326.72
2022-08-07T08:41:19.022Z,99315.66
2022-08-07T08:44:01.098Z,99319.19
2022-08-07T08:46:45.030Z,99310.00
2022-08-07T08:49:33.573Z,99315.75
2022-08-07T08:52:30.367Z,99309.34
2022-08-07T08:55:55.019Z,99298.06
2022-08-07T08:58:28.775Z,99306.31
2022-08-07T09:01:22.549Z,99306.41
2022-08-07T09:04:09.265Z,99310.34
2022-08-07T09:07:04.121Z,99297.59
2022-08-07T09:09:56.646Z,99303.28
2022-08-07T09:12:53.363Z,99299.56
2022-08-07T09:16:22.815Z,99305.75
2022-08-07T09:18:58.529Z,99302.88
2022-08-07T09:22:09.947Z,99307.06
2022-08-07T09:25:11.821Z,99300.19
2022-08-07T09:28:04.076Z,99296.78
2022-08-07T09:30:57.340Z,99296.44
2022-08-07T09:33:53.026Z,99301.22
2022-08-07T09:36:43.081Z,99290.84
2022-08-07T09:39:54.050Z,99293.22
2022-08-07T09:42:24.954Z,99294.09
2022-08-07T09:47:26.253Z,99286.31
2022-08-07T09:48:39.901Z,99283.94
2022-08-07T09:52:16.758Z,99276.59
2022-08-07T09:54:28.376Z,99270.47
2022-08-07T09:57:17.764Z,99252.28
2022-08-07T10:00:09.299Z,99265.72
2022-08-07T10:04:05.251Z,99264.19
2022-08-07T10:06:49.125Z,99256.88
2022-08-07T10:09:42.979Z,99254.28
2022-08-07T10:12:39.791Z,99256.94
2022-08-07T10:15:15.507Z,99241.81
2022-08-07T10:18:12.385Z,99243.63
2022-08-07T10:20:57.607Z,99239.06
2022-08-07T10:24:04.844Z,99247.78
2022-08-07T10:26:54.155Z,99234.69
2022-08-07T10:29:55.901Z,99237.66
2022-08-07T10:32:53.368Z,99230.84
2022-08-07T10:35:55.036Z,99227.94
2022-08-07T10:38:36.314Z,99229.63
2022-08-07T10:41:47.273Z,99224.28
2022-08-07T10:44:38.535Z,99223.44
2022-08-07T10:47:50.594Z,99216.56
2022-08-07T10:50:49.883Z,99210.75
2022-08-07T10:53:44.380Z,99211.69
2022-08-07T10:56:33.087Z,99210.34
2022-08-07T10:59:00.309Z,99212.00
2022-08-07T11:01:35.707Z,99204.03
2022-08-07T11:04:31.983Z,99203.34
2022-08-07T11:07:15.153Z,99199.91
2022-08-07T11:10:09.745Z,99213.25
2022-08-07T11:13:01.924Z,99197.75
2022-08-07T11:15:38.558Z,99203.28
2022-08-07T11:18:22.009Z,99205.94
2022-08-07T11:21:07.034Z,99211.16
2022-08-07T11:23:51.875Z,99201.84
2022-08-07T11:26:28.464Z,99193.00
2022-08-07T11:29:40.928Z,99200.56
2022-08-07T11:32:32.037Z,99193.59
2022-08-07T11:35:09.416Z,99196.13
2022-08-07T11:37:57.859Z,99190.69
2022-08-07T11:41:08.417Z,99187.09
2022-08-07T11:44:12.037Z,99205.13
2022-08-07T11:46:48.604Z,99204.34
2022-08-07T11:50:25.415Z,99208.81
2022-08-07T11:52:37.609Z,99215.97
2022-08-07T11:55:19.025Z,99216.31
2022-08-07T11:58:13.197Z,99230.06
2022-08-07T12:01:08.380Z,99235.09
2022-08-07T12:04:13.620Z,99235.94
2022-08-07T12:07:19.004Z,99242.84
2022-08-07T12:10:06.979Z,99230.75
2022-08-07T12:13:11.632Z,99254.16
2022-08-07T12:16:08.973Z,99261.44
2022-08-07T12:19:05.447Z,99270.31
2022-08-07T12:22:39.575Z,99254.25
2022-08-07T12:25:10.702Z,99296.69
2022-08-07T12:28:10.107Z,99314.63
2022-08-07T12:30:46.912Z,99310.69
2022-08-07T12:33:28.205Z,99306.84
2022-08-07T12:35:59.313Z,99306.44
2022-08-07T12:38:42.457Z,99309.50
2022-08-07T12:41:12.706Z,99311.81
2022-08-07T12:44:03.990Z,99313.78
2022-08-07T12:47:01.115Z,99321.16
2022-08-07T12:49:49.098Z,99320.59
2022-08-07T12:52:48.047Z,99308.91
2022-08-07T12:55:41.226Z,99320.88
2022-08-07T12:58:28.138Z,99312.81
2022-08-07T13:01:28.024Z,99318.38
2022-08-07T13:04:34.175Z,99327.75
2022-08-07T13:08:12.330Z,99349.78
2022-08-07T13:10:39.484Z,99359.13
2022-08-07T13:13:46.894Z,99364.50
2022-08-07T13:16:22.785Z,99370.63
2022-08-07T13:19:11.541Z,99365.31
2022-08-07T13:22:19.300Z,99350.78
2022-08-07T13:24:56.859Z,99341.88
2022-08-07T13:28:11.236Z,99338.81
2022-08-07T13:30:39.973Z,99349.47
2022-08-07T13:34:30.139Z,99359.84
2022-08-07T13:36:26.174Z,99358.63
2022-08-07T13:39:11.101Z,99358.13
2022-08-07T13:41:47.453Z,99357.00
2022-08-07T13:44:26.202Z,99349.91
2022-08-07T13:46:59.440Z,99352.50
2022-08-07T13:50:34.181Z,99350.56
2022-08-07T13:52:31.589Z,99367.53
2022-08-07T13:55:07.264Z,99348.34
2022-08-07T13:57:59.066Z,99368.25
2022-08-07T14:00:45.060Z,99361.16
2022-08-07T14:03:29.998Z,99370.72
2022-08-07T14:06:13.609Z,99364.19
2022-08-07T14:08:53.465Z,99367.25
2022-08-07T14:11:23.433Z,99349.78
2022-08-07T14:14:01.292Z,99353.38
2022-08-07T14:16:35.091Z,99343.84
2022-08-07T14:19:17.739Z,99333.09
2022-08-07T14:22:10.785Z,99347.25
2022-08-07T14:24:45.867Z,99350.75
2022-08-07T14:28:19.939Z,99358.47
2022-08-07T14:30:12.757Z,99361.28
2022-08-07T14:32:48.016Z,99363.97
2022-08-07T14:35:45.579Z,99360.28
2022-08-07T14:38:09.764Z,99366.66
2022-08-07T14:41:14.701Z,99367.38
2022-08-07T14:52:16.967Z,99359.25
2022-08-07T14:54:45.046Z,99357.16
2022-08-07T14:57:19.082Z,99340.53
2022-08-07T15:02:39.169Z,99366.06
2022-08-07T15:05:20.253Z,99373.41
2022-08-07T15:07:58.526Z,99344.91
2022-08-07T15:13:25.489Z,99370.78
2022-08-07T15:16:11.445Z,99366.50
2022-08-07T15:18:57.501Z,99385.69
2022-08-07T15:25:13.219Z,99397.22
2022-08-07T15:27:16.395Z,99406.47
2022-08-07T15:30:04.546Z,99403.38
2022-08-07T15:32:39.053Z,99393.34
2022-08-07T15:35:12.686Z,99384.41
2022-08-07T15:38:17.903Z,99385.47
2022-08-07T15:40:34.733Z,99381.94
2022-08-07T15:43:52.798Z,99379.88
2022-08-07T15:46:32.252Z,99367.41
2022-08-07T15:52:02.515Z,99361.28
2022-08-07T15:54:40.707Z,99361.19
2022-08-07T15:57:40.379Z,99354.28
2022-08-07T16:00:06.234Z,99357.41
2022-08-07T16:02:41.617Z,99356.94
2022-08-07T16:05:19.433Z,99359.75
2022-08-07T16:08:32.499Z,99372.19
2022-08-07T16:10:42.051Z,99389.38
2022-08-07T16:13:59.937Z,99403.72
2022-08-07T16:16:48.876Z,99406.66
2022-08-07T16:19:42.464Z,99418.25
2022-08-07T16:22:34.038Z,99414.91
2022-08-07T16:25:05.088Z,99415.78
2022-08-07T16:27:41.703Z,99424.38
2022-08-07T16:30:32.081Z,99420.88
2022-08-07T16:34:02.929Z,99427.84
2022-08-07T16:36:20.092Z,99437.31
2022-08-07T16:39:17.722Z,99434.19
2022-08-07T16:42:25.409Z,99433.25
2022-08-07T16:45:15.322Z,99436.66
2022-08-07T16:48:53.756Z,99442.88
2022-08-07T16:52:01.489Z,99456.94
2022-08-07T16:54:33.157Z,99455.88
2022-08-07T16:57:13.018Z,99436.13
2022-08-07T17:00:17.364Z,99437.53
2022-08-07T17:03:05.805Z,99446.69
2022-08-07T17:06:02.414Z,99453.25
2022-08-07T17:09:10.335Z,99444.09
2022-08-07T17:12:33.397Z,99452.44
2022-08-07T17:15:02.495Z,99459.91
2022-08-07T17:17:46.109Z,99468.31
2022-08-07T17:20:20.924Z,99478.47
2022-08-07T17:22:55.610Z,99479.88
2022-08-07T17:25:48.004Z,99471.81
2022-08-07T17:28:31.319Z,99486.50
2022-08-07T17:31:24.785Z,99481.84
2022-08-07T17:34:18.337Z,99483.47
2022-08-07T17:36:59.940Z,99482.63
2022-08-07T17:40:03.025Z,99497.03
2022-08-07T17:42:59.517Z,99475.06
2022-08-07T17:45:36.145Z,99497.97
2022-08-07T17:48:12.688Z,99490.22
2022-08-07T17:50:52.594Z,99498.31
2022-08-07T17:53:59.769Z,99491.44
2022-08-07T17:56:55.593Z,99495.44
2022-08-07T17:59:51.856Z,99488.63
2022-08-07T18:02:56.798Z,99495.59
2022-08-07T18:06:02.336Z,99498.66
2022-08-07T18:09:00.579Z,99504.06
2022-08-07T18:12:08.144Z,99503.59
2022-08-07T18:14:46.648Z,99506.63
2022-08-07T18:18:44.993Z,99513.06
2022-08-07T18:21:12.558Z,99513.44
2022-08-07T18:23:46.652Z,99518.19
2022-08-07T18:26:26.474Z,99514.66
2022-08-07T18:30:08.295Z,99513.53
2022-08-07T18:32:07.443Z,99522.13
2022-08-07T18:35:00.829Z,99525.47
2022-08-07T18:38:57.914Z,99524.25
2022-08-07T18:41:20.791Z,99514.19
2022-08-07T18:44:03.509Z,99508.94
2022-08-07T18:46:46.349Z,99523.63
2022-08-07T18:50:29.890Z,99525.34
2022-08-07T18:53:07.856Z,99518.38
2022-08-07T18:55:57.702Z,99534.13
2022-08-07T18:58:56.360Z,99537.56
2022-08-07T19:02:19.946Z,99542.91
2022-08-07T19:05:14.993Z,99544.81
2022-08-07T19:08:03.810Z,99538.75
2022-08-07T19:10:51.554Z,99529.53
2022-08-07T19:13:38.010Z,99539.84
2022-08-07T19:17:04.141Z,99525.47
2022-08-07T19:19:14.434Z,99535.03
2022-08-07T19:22:04.370Z,99538.66
2022-08-07T19:24:43.477Z,99531.75
2022-08-07T19:28:30.058Z,99520.41
2022-08-07T19:31:06.207Z,99516.19
2022-08-07T19:33:15.662Z,99523.06
2022-08-07T19:35:46.780Z,99522.47
2022-08-07T19:38:17.803Z,99514.94
2022-08-07T19:40:51.521Z,99532.78
2022-08-07T19:43:44.009Z,99539.00
2022-08-07T19:46:26.798Z,99527.81
2022-08-07T19:49:08.462Z,99538.72
2022-08-07T19:51:52.680Z,99525.59
2022-08-07T19:54:33.336Z,99537.78
2022-08-07T19:58:01.974Z,99534.84
2022-08-07T20:00:08.959Z,99517.28
2022-08-07T20:02:52.121Z,99519.41
2022-08-07T20:06:01.293Z,99532.59
2022-08-07T20:08:36.233Z,99535.63
2022-08-07T20:11:12.271Z,99543.97
2022-08-07T20:13:49.877Z,99527.22
2022-08-07T20:16:35.808Z,99535.28
2022-08-07T20:19:09.930Z,99526.78
2022-08-07T20:21:48.127Z,99531.34
2022-08-07T20:24:31.779Z,99526.88
2022-08-07T20:27:03.544Z,99532.16
2022-08-07T20:29:56.955Z,99520.53
2022-08-07T20:32:40.114Z,99513.28
2022-08-07T20:35:21.805Z,99513.22
2022-08-07T20:38:06.530Z,99519.75
2022-08-07T20:40:51.661Z,99513.13
2022-08-07T20:43:38.502Z,99522.41
2022-08-07T20:46:31.356Z,99524.84
2022-08-07T20:49:58.977Z,99527.53
2022-08-07T20:51:54.782Z,99513.75
2022-08-07T20:54:31.996Z,99514.53
2022-08-07T20:57:08.281Z,99512.81
2022-08-07T21:00:06.309Z,99494.91
2022-08-07T21:02:57.951Z,99507.56
2022-08-07T21:05:51.126Z,99506.78
2022-08-07T21:08:46.738Z,99493.25
2022-08-07T21:11:40.060Z,99504.16
2022-08-07T21:14:29.688Z,99508.53
2022-08-07T21:18:00.631Z,99515.75
2022-08-07T21:19:51.154Z,99513.09
2022-08-07T21:22:34.411Z,99528.03
2022-08-07T21:25:12.002Z,99529.50
2022-08-07T21:28:05.772Z,99524.19
2022-08-07T21:30:56.471Z,99527.66
2022-08-07T21:33:44.967Z,99542.28
2022-08-07T21:36:31.771Z,99548.44
2022-08-07T21:39:46.340Z,99551.84
2022-08-07T21:42:49.483Z,99561.84
2022-08-07T21:46:08.049Z,99562.94
2022-08-07T21:48:33.581Z,99561.31
2022-08-07T21:51:20.065Z,99558.09
2022-08-07T21:54:19.960Z,99553.63
2022-08-07T21:57:08.657Z,99559.97
2022-08-07T22:00:05.207Z,99556.53
2022-08-07T22:03:06.215Z,99562.78
2022-08-07T22:05:48.556Z,99555.03
2022-08-07T22:08:28.683Z,99554.50
2022-08-07T22:11:08.362Z,99556.84
2022-08-07T22:13:50.441Z,99563.09
2022-08-07T22:16:51.240Z,99545.72
2022-08-07T22:19:29.913Z,99545.72
2022-08-07T22:22:02.030Z,99560.44
2022-08-07T22:24:43.650Z,99557.06
2022-08-07T22:27:18.913Z,99556.44
2022-08-07T22:30:03.302Z,99551.34
2022-08-07T22:32:43.852Z,99547.22
2022-08-07T22:35:11.735Z,99541.19
2022-08-07T22:38:11.532Z,99545.56
2022-08-07T22:40:50.028Z,99550.19
2022-08-07T22:43:33.831Z,99535.47
2022-08-07T22:47:02.080Z,99546.94
2022-08-07T22:49:37.722Z,99550.72
2022-08-07T22:52:37.433Z,99550.78
2022-08-07T22:55:31.607Z,99563.06
2022-08-07T22:58:05.283Z,99566.59
2022-08-07T23:01:07.690Z,99569.09
2022-08-07T23:03:58.380Z,99545.00
2022-08-07T23:06:51.318Z,99568.81
2022-08-07T23:09:33.849Z,99573.97
2022-08-07T23:12:47.479Z,99573.75
2022-08-07T23:16:06.031Z,99579.84
2022-08-07T23:18:42.207Z,99573.50
2022-08-07T23:21:36.727Z,99559.56
2022-08-07T23:24:23.296Z,99576.88
2022-08-07T23:27:34.026Z,99582.19
2022-08-07T23:30:38.666Z,99559.56
2022-08-07T23:34:34.557Z,99583.78
2022-08-07T23:36:37.288Z,99580.16
2022-08-07T23:39:14.088Z,99574.91
2022-08-07T23:42:07.355Z,99573.28
2022-08-07T23:44:51.193Z,99570.06
2022-08-07T23:47:52.945Z,99552.13
2022-08-07T23:50:39.247Z,99563.78
2022-08-07T23:53:21.308Z,99566.97
2022-08-07T23:56:02.971Z,99564.25
2022-08-07T23:59:10.652Z,99576.31
